Mafeking, South Africa
Current Conditions -  °F | °C
As of 8:00 AM on Wednesday 22 Oct 2014 (Local Time) from FAMM Reporting Station
Clear Clear  
Wind Chill: 68°   Ceiling: Unl
Heat Index: 68°   Visibility: 6mi
Dew Point: 46°   Wind: 24mph
Humidity: 46%   Direction: 20°NNE
Pressure: 30.21"   Gusts: NA
Location:  25.86°S, 25.65°E
Report Text: FAMM 220600Z 02021KT CAVOK 20/08 Q1023 NOSIG
Loading
Personal Weather Stations






























Interactive Weather Map
Tropical Storm Tracking
New forecast layout! Learn more

10-Day Weather Forecast

Advertisements
Track Severe Weather on mobile